Time;durP1;ratioP1;P1;durP2;ratioP2;P2;SDS_P1;SDS_P2;PMS_P1;PMS_P2;Temp;Humidity;BMP_temperature;BMP_pressure;BME280_temperature;BME280_humidity;BME280_pressure;Samples;Min_cycle;Max_cycle;Signal;HPM_P1;HPM_P2
2024/01/30 00:01:07;;;;;;;;;32.25;28.50;;;;;12.48;72.86;102120.66;5038025;28;69319;-64
2024/01/30 00:03:32;;;;;;;;;36.25;23.50;;;;;12.49;72.89;102116.25;5041250;28;62873;-64
2024/01/30 00:05:57;;;;;;;;;33.75;27.00;;;;;12.48;72.74;102111.88;5033603;28;46181;-64
2024/01/30 00:08:22;;;;;;;;;32.75;27.75;;;;;12.48;72.47;102114.50;5031550;28;64324;-64
2024/01/30 00:10:48;;;;;;;;;31.50;28.25;;;;;12.46;72.88;102104.03;5046558;28;73502;-63
2024/01/30 00:13:16;;;;;;;;;33.50;28.00;;;;;12.45;72.41;102104.06;5040475;27;45252;-64
2024/01/30 00:15:41;;;;;;;;;33.75;26.75;;;;;12.46;73.07;102116.28;5043716;28;45313;-65
2024/01/30 00:18:06;;;;;;;;;31.75;26.50;;;;;12.46;72.68;102105.78;5038449;28;58769;-64
2024/01/30 00:20:32;;;;;;;;;32.50;27.50;;;;;12.45;72.61;102107.56;5044738;28;45831;-65
2024/01/30 00:22:57;;;;;;;;;33.00;28.25;;;;;12.44;73.12;102113.69;5037688;28;60156;-64
2024/01/30 00:25:22;;;;;;;;;33.25;27.75;;;;;12.43;73.02;102111.97;5039317;28;53257;-64
2024/01/30 00:27:48;;;;;;;;;38.50;31.00;;;;;12.44;72.73;102112.81;5037886;28;66704;-64
2024/01/30 00:30:13;;;;;;;;;25.25;20.25;;;;;12.45;72.64;102119.81;5038827;28;62369;-64
2024/01/30 00:32:39;;;;;;;;;37.75;28.75;;;;;12.44;72.59;102124.19;5040327;28;45394;-64
2024/01/30 00:35:04;;;;;;;;;32.50;26.25;;;;;12.46;73.10;102118.91;5038602;28;69455;-64
2024/01/30 00:37:31;;;;;;;;;36.00;27.25;;;;;12.49;73.14;102124.13;5040469;28;45569;-64
2024/01/30 00:39:56;;;;;;;;;34.50;28.00;;;;;12.49;72.67;102121.50;5039472;28;45362;-64
2024/01/30 00:42:23;;;;;;;;;23.00;17.75;;;;;12.48;72.70;102123.28;5038615;28;45496;-64
2024/01/30 00:44:49;;;;;;;;;30.00;25.50;;;;;12.49;73.06;102124.13;5039445;28;45625;-65
2024/01/30 00:47:14;;;;;;;;;44.00;29.00;;;;;12.50;73.07;102121.50;5039181;28;46955;-64
2024/01/30 00:49:40;;;;;;;;;31.25;26.75;;;;;12.50;72.80;102132.00;5035136;28;69759;-65
2024/01/30 00:52:05;;;;;;;;;28.00;24.50;;;;;12.47;73.17;102115.41;5038398;28;45469;-64
2024/01/30 00:54:30;;;;;;;;;27.75;25.25;;;;;12.49;73.08;102127.63;5039550;28;45442;-64
2024/01/30 00:56:56;;;;;;;;;36.50;25.00;;;;;12.49;72.72;102126.75;5038520;28;71905;-65
2024/01/30 00:59:22;;;;;;;;;31.00;25.00;;;;;12.47;73.02;102115.41;5039430;28;46359;-64
2024/01/30 01:01:47;;;;;;;;;28.75;25.50;;;;;12.47;73.01;102120.66;5038158;28;67004;-64
2024/01/30 01:04:12;;;;;;;;;32.50;27.50;;;;;12.47;73.21;102129.41;5043429;28;72090;-64
2024/01/30 01:06:38;;;;;;;;;32.50;27.75;;;;;12.45;73.22;102123.31;5033826;28;45540;-64
2024/01/30 01:09:03;;;;;;;;;25.25;22.50;;;;;12.47;73.17;102121.53;5052195;28;45462;-64
2024/01/30 01:11:29;;;;;;;;;31.50;24.00;;;;;12.46;73.32;102127.66;5043442;28;45619;-64
2024/01/30 01:13:54;;;;;;;;;30.00;21.00;;;;;12.47;73.11;102129.41;5044013;28;66504;-64
2024/01/30 01:16:20;;;;;;;;;26.75;24.50;;;;;12.48;72.94;102120.66;5040114;28;69023;-64
2024/01/30 01:18:45;;;;;;;;;27.50;24.25;;;;;12.47;73.27;102121.53;5038445;28;45339;-64
2024/01/30 01:21:10;;;;;;;;;29.25;23.00;;;;;12.49;73.26;102118.88;5041577;28;54490;-63
2024/01/30 01:23:36;;;;;;;;;31.00;23.50;;;;;12.46;73.45;102111.91;5037924;28;72911;-64
2024/01/30 01:26:01;;;;;;;;;27.00;23.25;;;;;12.46;73.41;102109.28;5038007;28;71261;-64
2024/01/30 01:28:26;;;;;;;;;25.50;22.75;;;;;12.44;73.68;102110.19;5040796;28;45321;-64
2024/01/30 01:30:52;;;;;;;;;26.25;23.00;;;;;12.44;73.24;102111.06;5039260;28;45565;-63
2024/01/30 01:33:17;;;;;;;;;27.75;24.25;;;;;12.45;73.17;102122.44;5038710;28;45431;-64
2024/01/30 01:35:42;;;;;;;;;29.75;25.75;;;;;12.44;73.40;102113.69;5037399;28;69116;-63
2024/01/30 01:38:08;;;;;;;;;27.50;25.25;;;;;12.45;73.68;102119.81;5039915;28;58652;-64
2024/01/30 01:40:33;;;;;;;;;35.25;24.50;;;;;12.43;73.39;102117.22;5039624;28;45486;-64
2024/01/30 01:42:58;;;;;;;;;32.75;27.50;;;;;12.43;73.57;102114.59;5038584;28;45364;-64
2024/01/30 01:45:24;;;;;;;;;28.75;24.00;;;;;12.45;73.71;102119.81;5042715;28;49429;-64
2024/01/30 01:47:52;;;;;;;;;34.00;27.50;;;;;12.45;73.93;102118.06;5037574;28;45379;-64
2024/01/30 01:50:18;;;;;;;;;28.50;26.50;;;;;12.45;73.93;102115.44;5040074;28;45517;-64
2024/01/30 01:52:45;;;;;;;;;31.25;25.25;;;;;12.44;73.81;102116.31;5038452;28;45254;-64
2024/01/30 01:55:11;;;;;;;;;31.25;27.75;;;;;12.45;74.09;102118.06;5038415;28;45276;-64
2024/01/30 01:57:37;;;;;;;;;24.00;22.00;;;;;12.44;73.81;102100.56;5038180;28;46088;-64
2024/01/30 02:00:04;;;;;;;;;30.25;23.25;;;;;12.44;73.97;102105.81;5037608;28;59866;-64
2024/01/30 02:02:31;;;;;;;;;25.75;24.00;;;;;12.43;73.67;102111.97;5038992;28;45442;-64
2024/01/30 02:10:22;;;;;;;;;29.00;19.50;;;;;12.33;74.34;102105.94;5068270;28;68811;-64
2024/01/30 02:12:48;;;;;;;;;25.75;20.00;;;;;12.32;74.10;102105.94;5048101;28;45418;-64
2024/01/30 02:15:14;;;;;;;;;26.00;24.75;;;;;12.31;74.15;102115.59;5047143;28;45367;-63
2024/01/30 02:17:39;;;;;;;;;26.50;23.25;;;;;12.27;74.17;102108.66;5051458;28;70328;-63
2024/01/30 02:20:05;;;;;;;;;24.25;22.00;;;;;12.25;74.58;102110.44;5038225;28;46648;-64
2024/01/30 02:22:32;;;;;;;;;25.50;20.25;;;;;12.22;74.71;102109.59;5054961;28;45353;-64
2024/01/30 02:24:57;;;;;;;;;24.00;21.50;;;;;12.19;75.06;102100.00;5056353;28;45384;-64
2024/01/30 02:27:23;;;;;;;;;23.50;21.25;;;;;12.18;74.57;102098.25;5041303;28;45185;-64
2024/01/30 02:29:48;;;;;;;;;23.00;18.75;;;;;12.13;75.13;102085.19;5040667;28;62650;-63
2024/01/30 02:32:13;;;;;;;;;24.50;20.25;;;;;12.13;75.06;102090.44;5038607;28;45343;-64
2024/01/30 02:34:39;;;;;;;;;21.50;18.50;;;;;12.13;75.51;102087.81;5040187;28;74714;-63
2024/01/30 02:37:04;;;;;;;;;20.50;18.00;;;;;12.14;75.05;102081.66;5042782;28;45387;-64
2024/01/30 02:39:30;;;;;;;;;21.75;18.50;;;;;12.14;75.74;102084.28;5040757;28;45351;-64
2024/01/30 02:41:55;;;;;;;;;20.25;20.00;;;;;12.19;75.84;102094.75;5081436;27;45582;-63
2024/01/30 02:44:20;;;;;;;;;22.00;19.25;;;;;12.21;75.49;102102.59;5041214;28;46118;-63
2024/01/30 02:46:46;;;;;;;;;21.75;19.00;;;;;12.19;75.33;102096.50;5048734;28;62431;-63
2024/01/30 02:49:11;;;;;;;;;21.75;18.25;;;;;12.18;75.44;102100.88;5042578;28;45481;-63
2024/01/30 02:51:36;;;;;;;;;19.50;17.75;;;;;12.19;75.97;102104.38;5048729;28;71643;-64
2024/01/30 02:54:02;;;;;;;;;24.00;16.75;;;;;12.15;75.63;102100.91;5040488;28;45289;-63
2024/01/30 02:56:27;;;;;;;;;19.25;18.00;;;;;12.15;75.61;102099.16;5041259;28;47925;-64
2024/01/30 02:58:52;;;;;;;;;22.50;19.50;;;;;12.13;75.75;102087.81;5039086;28;56767;-64
2024/01/30 03:01:18;;;;;;;;;24.00;17.25;;;;;12.11;75.75;102086.06;5040095;28;72156;-64
2024/01/30 03:03:43;;;;;;;;;20.00;18.75;;;;;12.11;76.23;102089.59;5051651;28;45338;-63
2024/01/30 03:06:08;;;;;;;;;21.00;18.00;;;;;12.13;76.35;102086.97;5043264;28;45283;-63
2024/01/30 03:08:35;;;;;;;;;26.00;20.25;;;;;12.15;76.30;102079.94;5036336;28;59809;-63
2024/01/30 03:11:00;;;;;;;;;23.50;18.00;;;;;12.18;76.55;102097.38;5076411;27;45626;-63
2024/01/30 03:13:25;;;;;;;;;19.25;17.75;;;;;12.18;76.76;102095.63;5050876;28;45878;-63
2024/01/30 03:15:51;;;;;;;;;24.25;19.00;;;;;12.20;76.76;102101.75;5040481;28;45346;-63
2024/01/30 03:18:16;;;;;;;;;18.25;16.00;;;;;12.18;76.54;102086.88;5043423;28;45442;-63
2024/01/30 03:20:41;;;;;;;;;18.00;17.50;;;;;12.17;76.41;102100.91;5044068;28;65627;-63
2024/01/30 03:23:07;;;;;;;;;16.50;13.50;;;;;12.14;76.59;102094.78;5041109;28;71434;-63
2024/01/30 03:25:32;;;;;;;;;21.00;16.00;;;;;12.12;76.79;102088.69;5039941;28;45441;-63
2024/01/30 03:27:57;;;;;;;;;21.50;17.00;;;;;12.10;77.05;102097.47;5044946;28;45320;-63
2024/01/30 03:30:23;;;;;;;;;19.50;16.00;;;;;12.08;77.29;102091.38;5040229;28;57120;-63
2024/01/30 03:32:48;;;;;;;;;13.25;9.25;;;;;12.07;77.28;102097.50;5039336;28;45320;-64
2024/01/30 03:35:14;;;;;;;;;18.50;15.75;;;;;12.07;77.12;102103.63;5039116;28;60584;-63
2024/01/30 03:37:39;;;;;;;;;16.00;13.00;;;;;12.05;77.15;102104.53;5042379;28;45436;-63
2024/01/30 03:40:05;;;;;;;;;18.50;16.00;;;;;12.05;77.50;102099.28;5040856;28;45564;-63
2024/01/30 03:42:30;;;;;;;;;20.25;12.25;;;;;12.03;77.33;102094.03;5039366;28;45356;-63
2024/01/30 03:44:56;;;;;;;;;14.00;14.00;;;;;12.01;77.55;102105.47;5040070;28;70510;-64
2024/01/30 03:47:21;;;;;;;;;17.75;13.00;;;;;12.03;78.07;102108.94;5038689;28;45363;-63
2024/01/30 03:49:47;;;;;;;;;15.25;11.75;;;;;12.05;77.83;102104.53;5047408;28;62044;-64
2024/01/30 03:52:12;;;;;;;;;18.50;15.25;;;;;12.04;78.07;102101.03;5042401;28;74171;-64
2024/01/30 03:54:37;;;;;;;;;15.25;12.75;;;;;12.04;77.97;102094.91;5057394;28;48944;-64
2024/01/30 03:57:03;;;;;;;;;18.25;12.75;;;;;12.04;78.23;102092.28;5050610;28;69103;-64
2024/01/30 03:59:28;;;;;;;;;15.50;13.50;;;;;12.01;78.31;102090.59;5081601;27;45477;-63
2024/01/30 04:01:54;;;;;;;;;14.50;13.00;;;;;11.95;78.19;102082.75;5048870;28;67069;-64
2024/01/30 04:04:19;;;;;;;;;18.25;12.50;;;;;11.94;78.42;102086.28;5048247;28;45277;-64
2024/01/30 04:06:45;;;;;;;;;13.00;13.00;;;;;11.91;78.52;102073.19;5053470;28;45797;-63
2024/01/30 04:09:11;;;;;;;;;11.25;11.00;;;;;11.90;78.58;102095.06;5050167;28;45481;-64
2024/01/30 04:11:36;;;;;;;;;13.50;13.00;;;;;11.89;78.30;102095.94;5051325;28;45430;-63
2024/01/30 04:14:01;;;;;;;;;14.00;13.50;;;;;11.88;78.96;102094.16;5057205;28;45397;-63
2024/01/30 04:16:27;;;;;;;;;17.50;13.00;;;;;11.88;79.02;102086.31;5051782;28;45417;-63
2024/01/30 04:18:52;;;;;;;;;16.75;13.00;;;;;11.87;78.87;102082.81;5046753;28;69677;-64
2024/01/30 04:21:17;;;;;;;;;13.25;12.75;;;;;11.86;79.09;102080.22;5052823;28;71769;-64
2024/01/30 04:23:43;;;;;;;;;18.25;14.00;;;;;11.86;78.75;102081.06;5049531;28;67464;-64
2024/01/30 04:26:08;;;;;;;;;16.00;12.00;;;;;11.85;79.07;102076.72;5054000;28;45199;-64
2024/01/30 04:28:33;;;;;;;;;16.00;12.50;;;;;11.85;79.10;102074.09;5056999;28;64644;-64
2024/01/30 04:30:59;;;;;;;;;18.25;14.75;;;;;11.87;78.91;102076.72;5047789;28;53789;-63
2024/01/30 04:33:24;;;;;;;;;13.75;11.75;;;;;11.85;79.09;102079.34;5058038;28;45370;-63
2024/01/30 04:35:49;;;;;;;;;15.50;13.00;;;;;11.88;79.30;102076.69;5083846;27;69335;-63
2024/01/30 04:38:15;;;;;;;;;20.00;14.50;;;;;11.87;79.24;102074.94;5057013;28;45444;-63
2024/01/30 04:40:40;;;;;;;;;20.25;13.50;;;;;11.91;79.46;102081.94;5045723;28;71834;-64
2024/01/30 04:43:06;;;;;;;;;20.75;18.25;;;;;11.93;79.27;102076.66;5056629;28;67018;-64
2024/01/30 04:45:31;;;;;;;;;26.50;19.00;;;;;11.92;79.48;102081.06;5054706;28;45241;-64
2024/01/30 04:47:56;;;;;;;;;23.50;20.25;;;;;11.95;79.07;102082.75;5040019;28;68527;-64
2024/01/30 04:50:22;;;;;;;;;29.75;23.75;;;;;11.96;79.31;102089.75;5040459;28;46273;-64
2024/01/30 04:52:48;;;;;;;;;27.00;24.00;;;;;11.95;79.17;102082.75;5039532;28;46240;-64
2024/01/30 04:55:13;;;;;;;;;22.50;22.50;;;;;11.99;79.32;102091.47;5039104;28;45436;-64
2024/01/30 04:57:39;;;;;;;;;20.00;18.00;;;;;12.00;79.12;102094.06;5042847;28;70259;-63
2024/01/30 05:00:05;;;;;;;;;25.00;20.25;;;;;12.01;79.20;102092.34;5039185;28;46096;-64
2024/01/30 05:02:30;;;;;;;;;24.75;21.50;;;;;12.01;79.45;102090.59;5039604;28;45920;-64
2024/01/30 05:04:56;;;;;;;;;23.75;18.50;;;;;12.01;79.38;102094.97;5038744;28;70139;-64
2024/01/30 05:07:21;;;;;;;;;21.50;18.75;;;;;12.01;79.38;102089.72;5042442;28;45426;-64
2024/01/30 05:09:46;;;;;;;;;24.50;18.00;;;;;12.02;79.64;102099.31;5039291;28;46253;-64
2024/01/30 05:12:12;;;;;;;;;22.50;19.50;;;;;12.01;79.14;102102.84;5039698;28;56433;-64
2024/01/30 05:14:37;;;;;;;;;12.75;12.75;;;;;12.02;79.60;102099.31;5038652;28;63188;-63
2024/01/30 05:17:03;;;;;;;;;15.50;14.00;;;;;12.03;79.46;102101.91;5038339;28;73782;-64
2024/01/30 05:19:28;;;;;;;;;17.50;17.50;;;;;12.02;79.67;102102.78;5040616;28;45703;-65
2024/01/30 05:21:54;;;;;;;;;18.75;14.50;;;;;12.03;79.73;102108.94;5039061;28;45296;-64
2024/01/30 05:24:19;;;;;;;;;21.75;14.25;;;;;12.02;79.61;102108.03;5040159;28;60117;-64
2024/01/30 05:26:44;;;;;;;;;18.75;16.25;;;;;12.02;79.73;102113.28;5022767;28;50115;-63
2024/01/30 05:29:09;;;;;;;;;18.25;12.00;;;;;12.01;79.66;102123.81;5037634;28;71837;-64
2024/01/30 05:31:35;;;;;;;;;11.75;11.00;;;;;12.02;79.58;102126.41;5038091;28;73870;-64
2024/01/30 05:34:00;;;;;;;;;19.00;15.25;;;;;12.02;79.68;102134.28;5046115;28;45419;-64
2024/01/30 05:36:26;;;;;;;;;15.50;13.25;;;;;12.03;79.73;102138.66;5039228;28;45169;-64
2024/01/30 05:38:51;;;;;;;;;16.00;13.50;;;;;12.03;79.80;102129.91;5040739;28;74266;-64
2024/01/30 05:41:16;;;;;;;;;14.75;13.00;;;;;12.03;79.70;102129.91;5052225;28;45609;-63
2024/01/30 05:43:42;;;;;;;;;17.50;13.50;;;;;12.03;79.55;102133.41;5040783;28;59093;-63
2024/01/30 05:46:07;;;;;;;;;19.50;17.00;;;;;12.05;79.51;102146.50;5038390;28;50520;-63
2024/01/30 05:48:32;;;;;;;;;24.25;14.00;;;;;12.03;79.35;102149.16;5036810;28;46128;-64
2024/01/30 05:50:59;;;;;;;;;15.00;13.00;;;;;12.04;79.38;102156.16;5039142;28;45289;-64
2024/01/30 05:53:25;;;;;;;;;15.25;15.25;;;;;12.04;79.75;102155.25;5044408;28;45506;-64
2024/01/30 05:55:50;;;;;;;;;10.75;10.75;;;;;12.03;80.03;102149.16;5040228;28;45271;-63
2024/01/30 05:58:15;;;;;;;;;15.50;13.50;;;;;12.05;79.95;102157.88;5042247;28;46229;-63
2024/01/30 06:00:41;;;;;;;;;16.00;13.25;;;;;12.06;79.89;102164.00;5040628;28;60231;-63
2024/01/30 06:03:07;;;;;;;;;20.75;16.00;;;;;12.07;79.71;102163.09;5044731;28;65343;-63
2024/01/30 06:05:32;;;;;;;;;21.00;16.25;;;;;12.07;79.98;102163.09;5042498;28;45363;-63
2024/01/30 06:07:57;;;;;;;;;18.25;13.50;;;;;12.09;80.19;102162.22;5041069;28;75686;-64
2024/01/30 06:10:23;;;;;;;;;14.00;11.50;;;;;12.07;79.98;102158.72;5041591;28;66409;-64
2024/01/30 06:12:48;;;;;;;;;15.50;12.00;;;;;12.10;80.06;102166.56;5045116;28;45329;-64
2024/01/30 06:15:13;;;;;;;;;10.25;7.25;;;;;12.11;80.35;102170.94;5040240;28;45454;-64
2024/01/30 06:17:39;;;;;;;;;9.75;8.25;;;;;12.15;80.38;102174.41;5041095;28;67515;-64
2024/01/30 06:20:05;;;;;;;;;13.25;12.00;;;;;12.13;80.45;102166.53;5043279;28;46220;-64
2024/01/30 06:22:30;;;;;;;;;14.25;11.25;;;;;12.18;80.35;102170.88;5047674;28;45225;-64
2024/01/30 06:24:56;;;;;;;;;14.00;13.50;;;;;12.20;80.65;102174.34;5048632;28;72101;-63
2024/01/30 06:27:21;;;;;;;;;14.25;12.00;;;;;12.24;80.74;102178.69;5052970;28;69882;-64
2024/01/30 06:29:46;;;;;;;;;8.25;8.00;;;;;12.27;80.49;102184.78;5049705;28;63227;-64
2024/01/30 06:32:11;;;;;;;;;15.00;11.75;;;;;12.29;80.38;102183.00;5044998;28;69191;-63
2024/01/30 06:34:38;;;;;;;;;13.00;11.25;;;;;12.30;80.58;102194.34;5060416;28;45209;-65
2024/01/30 06:37:04;;;;;;;;;33.50;30.25;;;;;12.31;80.49;102190.84;5048768;28;46232;-66
2024/01/30 06:39:29;;;;;;;;;45.75;37.50;;;;;12.34;80.44;102186.44;5052027;28;70368;-66
2024/01/30 06:41:54;;;;;;;;;19.25;14.25;;;;;12.37;80.42;102188.16;5053587;28;45531;-66
2024/01/30 06:44:20;;;;;;;;;19.25;12.75;;;;;12.38;80.55;102196.88;5038731;28;72785;-67
2024/01/30 06:46:45;;;;;;;;;13.00;11.00;;;;;12.39;80.44;102190.75;5042624;28;45398;-65
2024/01/30 06:49:10;;;;;;;;;10.50;10.50;;;;;12.40;80.49;102190.75;5044435;28;45424;-63
2024/01/30 06:51:36;;;;;;;;;12.00;11.75;;;;;12.41;80.26;102192.50;5052003;28;67652;-64
2024/01/30 06:54:01;;;;;;;;;18.75;15.00;;;;;12.42;80.30;102194.22;5044202;28;65213;-66
2024/01/30 06:56:27;;;;;;;;;14.25;13.25;;;;;12.43;80.73;102195.97;5039915;28;63004;-61
2024/01/30 06:58:53;;;;;;;;;14.50;12.00;;;;;12.45;80.87;102202.06;5043386;28;46078;-61
2024/01/30 07:01:18;;;;;;;;;16.75;13.00;;;;;12.45;80.61;102196.81;5045116;28;45479;-60
2024/01/30 07:03:43;;;;;;;;;15.00;12.50;;;;;12.49;80.89;102205.53;5048583;28;45382;-62
2024/01/30 07:06:10;;;;;;;;;15.25;12.25;;;;;12.53;80.71;102209.84;5042155;28;65903;-63
2024/01/30 07:08:37;;;;;;;;;13.50;12.00;;;;;12.57;80.33;102206.31;5042198;28;47185;-61
2024/01/30 07:11:02;;;;;;;;;15.00;13.00;;;;;12.61;80.73;102213.28;5043751;28;45695;-60
2024/01/30 07:13:28;;;;;;;;;90.75;77.75;;;;;12.64;80.67;102212.34;5040650;28;45334;-60
2024/01/30 07:15:54;;;;;;;;;16.00;13.00;;;;;12.65;80.20;102214.97;5040525;28;46557;-70
2024/01/30 07:18:19;;;;;;;;;12.50;11.25;;;;;12.70;80.32;102223.66;5040646;28;45439;-65
2024/01/30 07:20:49;;;;;;;;;10.00;9.00;;;;;12.71;80.38;102219.28;5041780;28;57018;-65
2024/01/30 07:23:16;;;;;;;;;13.75;12.00;;;;;12.74;80.62;102219.25;5062482;28;45187;-62
2024/01/30 07:25:41;;;;;;;;;19.25;13.25;;;;;12.77;80.13;102223.59;5040353;28;45947;-65
2024/01/30 07:28:12;;;;;;;;;14.00;12.50;;;;;12.80;79.96;102229.69;5072997;27;45193;-64
2024/01/30 07:30:37;;;;;;;;;13.00;12.00;;;;;12.83;80.46;102228.75;5041408;28;45586;-68
2024/01/30 07:33:02;;;;;;;;;13.50;13.00;;;;;12.86;80.45;102231.38;5023113;28;70191;-63
2024/01/30 07:35:28;;;;;;;;;17.00;14.00;;;;;12.88;79.82;102238.31;5071436;28;53651;-64
2024/01/30 07:37:53;;;;;;;;;30.00;28.25;;;;;12.87;79.99;102238.34;5038235;28;69533;-64
2024/01/30 07:40:18;;;;;;;;;49.50;38.00;;;;;12.91;79.98;102237.44;5049344;28;63482;-64
2024/01/30 07:42:44;;;;;;;;;24.50;18.75;;;;;12.91;80.04;102248.81;5047444;28;70951;-65
2024/01/30 07:45:09;;;;;;;;;13.25;10.75;;;;;12.96;80.00;102255.75;5045909;28;52014;-68
2024/01/30 07:47:34;;;;;;;;;20.25;14.50;;;;;12.98;80.34;102251.34;5045895;28;45276;-64
2024/01/30 07:50:00;;;;;;;;;16.50;13.75;;;;;13.00;79.71;102257.47;5064064;27;69290;-64
2024/01/30 07:52:25;;;;;;;;;20.75;13.75;;;;;13.02;80.11;102261.81;5039040;28;60726;-63
2024/01/30 07:54:51;;;;;;;;;14.50;13.00;;;;;13.06;79.87;102270.53;5047136;28;46244;-64
2024/01/30 07:57:17;;;;;;;;;16.50;13.50;;;;;13.08;79.73;102272.25;5044176;28;47564;-65
2024/01/30 07:59:46;;;;;;;;;13.25;12.00;;;;;13.10;79.64;102275.72;5045955;28;45513;-64
2024/01/30 08:02:18;;;;;;;;;12.50;9.50;;;;;13.11;79.55;102266.94;5041438;28;45450;-63
2024/01/30 08:04:43;;;;;;;;;19.75;14.50;;;;;13.14;79.67;102266.03;5048394;28;45528;-65
2024/01/30 08:07:09;;;;;;;;;17.25;13.25;;;;;13.17;79.58;102276.50;5042924;28;45489;-64
2024/01/30 08:09:34;;;;;;;;;20.25;15.25;;;;;13.17;79.95;102278.25;5047800;28;65331;-64
2024/01/30 08:11:59;;;;;;;;;16.50;12.50;;;;;13.19;79.69;102287.88;5045944;28;71573;-64
2024/01/30 08:14:25;;;;;;;;;18.25;13.50;;;;;13.21;79.93;102291.38;5050006;28;45984;-65
2024/01/30 08:16:51;;;;;;;;;15.75;13.00;;;;;13.22;79.48;102294.84;5044433;28;45947;-65
2024/01/30 08:19:16;;;;;;;;;16.75;13.00;;;;;13.21;79.48;102294.00;5042291;28;45415;-64
2024/01/30 08:21:41;;;;;;;;;19.00;15.00;;;;;13.23;79.63;102301.88;5043011;28;45591;-65
2024/01/30 08:24:07;;;;;;;;;23.00;15.25;;;;;13.24;79.64;102301.84;5039952;28;46131;-65
2024/01/30 08:26:33;;;;;;;;;18.75;15.25;;;;;13.25;80.01;102307.97;5040228;28;45397;-64
2024/01/30 08:28:58;;;;;;;;;20.75;16.25;;;;;13.26;79.57;102313.22;5038098;28;45411;-65
2024/01/30 08:31:24;;;;;;;;;19.00;14.25;;;;;13.28;79.90;102306.16;5037832;28;75437;-64
2024/01/30 08:33:49;;;;;;;;;19.25;18.00;;;;;13.32;79.30;102316.69;5039645;28;46036;-65
2024/01/30 08:36:16;;;;;;;;;20.50;15.50;;;;;13.30;79.53;102316.66;5040819;28;45343;-65
2024/01/30 08:38:41;;;;;;;;;11.25;10.75;;;;;13.33;79.25;102316.63;5051253;28;45415;-64
2024/01/30 08:41:07;;;;;;;;;20.50;16.25;;;;;13.34;79.35;102321.03;5037232;28;46757;-64
2024/01/30 08:43:32;;;;;;;;;14.75;12.25;;;;;13.35;79.50;102319.25;5038329;28;45338;-65
2024/01/30 08:46:01;;;;;;;;;20.50;15.00;;;;;13.35;79.00;102321.88;5039288;28;52153;-63
2024/01/30 08:48:26;;;;;;;;;15.75;15.00;;;;;13.37;78.74;102320.09;5038438;28;45416;-64
2024/01/30 08:50:52;;;;;;;;;18.50;15.25;;;;;13.38;78.89;102332.38;5038376;28;45438;-64
2024/01/30 08:53:17;;;;;;;;;20.00;14.50;;;;;13.37;78.91;102334.13;5054224;28;48100;-65
2024/01/30 08:55:43;;;;;;;;;18.00;14.00;;;;;13.38;79.09;102333.22;5039022;28;70815;-65
2024/01/30 08:58:08;;;;;;;;;24.50;18.00;;;;;13.38;78.80;102338.47;5038624;28;69623;-65
2024/01/30 09:00:33;;;;;;;;;333.00;261.33;;;;;13.40;78.69;102346.34;5037677;28;59987;-65
2024/01/30 09:02:59;;;;;;;;;18.00;16.25;;;;;13.40;78.66;102348.97;5039362;28;46126;-64
2024/01/30 09:05:24;;;;;;;;;21.00;14.50;;;;;13.41;78.73;102353.38;5039602;28;45402;-65
2024/01/30 09:07:49;;;;;;;;;23.50;17.25;;;;;13.39;78.79;102348.13;5038697;28;64367;-64
2024/01/30 09:10:15;;;;;;;;;16.75;12.25;;;;;13.38;78.74;102359.53;5073118;27;45725;-64
2024/01/30 09:12:40;;;;;;;;;16.00;13.00;;;;;13.37;78.71;102354.28;5038128;28;47106;-64
2024/01/30 09:15:06;;;;;;;;;18.25;15.00;;;;;13.36;78.36;102358.69;5054562;28;52616;-64
2024/01/30 09:17:33;;;;;;;;;18.50;13.25;;;;;13.34;78.71;102360.47;5039203;28;45492;-65
2024/01/30 09:19:58;;;;;;;;;15.75;13.00;;;;;13.34;78.27;102367.50;5039555;28;45372;-65
2024/01/30 09:22:23;;;;;;;;;18.00;14.50;;;;;13.34;78.40;102359.59;5039313;28;45483;-64
2024/01/30 09:24:49;;;;;;;;;17.50;14.75;;;;;13.35;78.31;102370.09;5038449;28;60607;-63
2024/01/30 09:27:14;;;;;;;;;18.75;16.00;;;;;13.35;78.59;102372.72;5038852;28;45453;-64
2024/01/30 09:29:39;;;;;;;;;49.25;36.25;;;;;13.36;78.72;102373.59;5039279;28;73248;-64
2024/01/30 09:32:06;;;;;;;;;34.25;30.25;;;;;13.35;78.30;102379.72;5044376;28;66554;-64
2024/01/30 09:34:31;;;;;;;;;25.25;16.75;;;;;13.33;78.57;102378.88;5050564;28;45419;-63
2024/01/30 09:36:57;;;;;;;;;17.50;13.00;;;;;13.31;78.31;102384.16;5051969;28;45358;-64
2024/01/30 09:39:22;;;;;;;;;17.50;15.75;;;;;13.30;78.60;102383.25;5036698;28;57799;-64
2024/01/30 09:42:02;;;;;;;;;20.25;15.75;;;;;13.32;78.34;102385.03;5044466;28;46818;-64
2024/01/30 09:44:28;;;;;;;;;17.50;15.00;;;;;13.32;78.74;102385.03;5059735;28;45744;-63
2024/01/30 09:46:54;;;;;;;;;23.00;18.50;;;;;13.33;78.28;102386.78;5071806;28;45569;-63
2024/01/30 09:49:20;;;;;;;;;19.50;14.00;;;;;13.32;78.35;102393.78;5037994;28;70184;-64
2024/01/30 09:51:46;;;;;;;;;24.50;19.75;;;;;13.33;78.64;102397.28;5041543;28;71187;-64
2024/01/30 09:54:13;;;;;;;;;21.25;14.25;;;;;13.33;78.93;102398.16;5042302;28;45470;-65
2024/01/30 09:56:39;;;;;;;;;21.50;16.75;;;;;13.38;78.42;102398.09;5042659;28;46639;-64
2024/01/30 09:59:04;;;;;;;;;24.75;18.25;;;;;13.42;78.61;102399.81;5041827;28;60345;-64
2024/01/30 10:01:31;;;;;;;;;23.00;14.50;;;;;13.47;78.84;102405.88;5041336;28;74760;-64
2024/01/30 10:03:56;;;;;;;;;19.00;16.75;;;;;13.53;78.35;102408.44;5042426;28;45238;-64
2024/01/30 10:06:22;;;;;;;;;16.50;14.00;;;;;13.56;78.22;102411.00;5041682;28;69133;-63
2024/01/30 10:08:48;;;;;;;;;20.50;14.75;;;;;13.61;78.33;102408.34;5041064;28;45620;-63
2024/01/30 10:11:13;;;;;;;;;20.00;13.25;;;;;13.64;77.85;102411.81;5044650;28;45360;-63
2024/01/30 10:13:39;;;;;;;;;24.25;14.75;;;;;13.68;78.09;102407.38;5047083;28;68626;-64
2024/01/30 10:16:06;;;;;;;;;26.75;18.50;;;;;13.72;77.96;102418.72;5042082;28;60218;-64
2024/01/30 10:18:31;;;;;;;;;19.25;15.25;;;;;13.75;77.52;102416.91;5042378;28;45330;-64
2024/01/30 10:20:57;;;;;;;;;18.75;13.00;;;;;13.79;77.65;102423.91;5040945;28;48045;-63
2024/01/30 10:23:22;;;;;;;;;17.25;12.75;;;;;13.83;77.17;102428.22;5041274;28;71079;-64
2024/01/30 10:25:47;;;;;;;;;14.25;12.00;;;;;13.82;76.94;102425.59;5040079;28;63104;-64
2024/01/30 10:28:13;;;;;;;;;15.75;13.00;;;;;13.84;76.91;102427.31;5041726;28;45465;-64
2024/01/30 10:30:38;;;;;;;;;12.75;12.00;;;;;13.90;76.83;102441.28;5041569;28;46608;-63
2024/01/30 10:33:04;;;;;;;;;14.50;12.00;;;;;13.92;76.99;102435.13;5056673;28;72256;-65
2024/01/30 10:35:33;;;;;;;;;15.75;12.50;;;;;13.97;76.45;102438.56;5042040;28;45409;-64
2024/01/30 10:37:59;;;;;;;;;15.50;14.00;;;;;14.01;76.74;102444.66;5041795;28;45488;-63
2024/01/30 10:40:27;;;;;;;;;19.25;15.25;;;;;14.02;76.75;102443.75;5071544;27;50386;-64
2024/01/30 10:42:55;;;;;;;;;16.00;13.50;;;;;14.02;76.60;102446.38;5041053;28;45395;-66
2024/01/30 10:45:22;;;;;;;;;17.00;14.00;;;;;14.05;76.72;102444.56;5041484;28;45491;-64
2024/01/30 10:47:50;;;;;;;;;20.00;15.00;;;;;14.08;76.46;102451.56;5041739;28;45457;-64
2024/01/30 10:50:16;;;;;;;;;18.50;14.25;;;;;14.10;76.10;102451.56;5059745;28;47712;-64
2024/01/30 10:52:43;;;;;;;;;19.00;16.50;;;;;14.10;75.62;102446.28;5042427;28;45391;-63
2024/01/30 10:55:09;;;;;;;;;14.50;13.25;;;;;14.10;75.91;102449.78;5040473;28;45224;-64
2024/01/30 10:57:36;;;;;;;;;21.25;15.00;;;;;14.15;75.72;102447.97;5041191;28;54544;-63
2024/01/30 11:00:10;;;;;;;;;16.50;15.00;;;;;14.18;75.78;102447.03;5041344;28;45208;-64
2024/01/30 11:02:40;;;;;;;;;17.75;14.00;;;;;14.21;75.54;102445.22;5041246;28;45800;-64
2024/01/30 11:05:05;;;;;;;;;18.00;15.00;;;;;14.25;75.48;102448.69;5057211;28;45332;-64
2024/01/30 11:07:31;;;;;;;;;21.25;14.00;;;;;14.26;75.27;102447.81;5044543;28;45616;-64